Time;durP1;ratioP1;P1;durP2;ratioP2;P2;SDS_P1;SDS_P2;PMS_P1;PMS_P2;Temp;Humidity;BMP_temperature;BMP_pressure;BME280_temperature;BME280_humidity;BME280_pressure;Samples;Min_cycle;Max_cycle;Signal;HPM_P1;HPM_P2
2022/05/11 00:01:29;;;;;;;10.95;4.43;;;;;;;14.30;82.24;101264.72;10543740;28;20040;-70
2022/05/11 00:06:29;;;;;;;9.43;4.82;;;;;;;14.27;82.58;101272.50;10544716;28;20125;-70
2022/05/11 00:11:30;;;;;;;6.13;2.58;;;;;;;14.25;81.74;101263.69;10543579;28;20051;-70
2022/05/11 00:16:30;;;;;;;2.78;2.28;;;;;;;14.25;80.84;101272.69;10508710;28;20024;-70
2022/05/11 00:21:31;;;;;;;7.90;3.30;;;;;;;14.16;82.78;101263.91;10542088;28;20046;-71
2022/05/11 00:26:31;;;;;;;10.95;3.72;;;;;;;14.12;81.31;101253.66;10543081;28;20032;-70
2022/05/11 00:31:32;;;;;;;9.70;3.22;;;;;;;14.19;81.22;101259.94;10542056;28;20060;-70
2022/05/11 00:36:32;;;;;;;6.68;3.10;;;;;;;14.23;82.92;101250.31;10525550;28;20344;-71
2022/05/11 00:41:33;;;;;;;4.35;3.08;;;;;;;14.26;82.81;101251.72;10542354;28;20113;-70
2022/05/11 00:47:00;;;;;;;8.30;2.72;;;;;;;14.30;82.20;101244.84;10524874;28;20418;-70
2022/05/11 00:52:07;;;;;;;9.07;2.95;;;;;;;14.35;81.22;101240.41;10540076;28;20473;-70
2022/05/11 00:57:14;;;;;;;10.93;3.75;;;;;;;14.30;82.32;101226.59;10524414;28;20028;-70
2022/05/11 01:02:15;;;;;;;19.05;3.67;;;;;;;14.36;80.86;101233.91;10523615;28;20024;-70
2022/05/11 01:07:15;;;;;;;9.32;4.03;;;;;;;14.30;82.19;101221.16;10522646;28;20028;-70
2022/05/11 01:12:17;;;;;;;10.93;3.13;;;;;;;14.32;80.94;101210.84;10539100;28;20483;-70
2022/05/11 01:17:18;;;;;;;7.63;3.15;;;;;;;14.19;81.66;101195.38;10522744;28;20387;-71
2022/05/11 01:22:36;;;;;;;8.13;3.53;;;;;;;14.17;80.19;101204.84;10523760;28;20177;-70
2022/05/11 01:27:40;;;;;;;3.47;2.88;;;;;;;14.19;81.87;101189.94;10508871;28;20047;-70
2022/05/11 01:32:44;;;;;;;9.93;2.97;;;;;;;14.29;80.94;101191.38;10539829;28;20113;-71
2022/05/11 01:37:58;;;;;;;11.45;2.75;;;;;;;14.32;80.45;101193.69;10541419;28;20461;-70
2022/05/11 01:42:58;;;;;;;4.55;2.63;;;;;;;14.38;78.72;101188.19;10523181;28;20043;-71
2022/05/11 01:47:59;;;;;;;6.55;2.38;;;;;;;14.36;79.13;101186.75;10541522;28;20383;-70
2022/05/11 01:52:59;;;;;;;5.35;3.10;;;;;;;14.38;78.35;101195.53;10521871;28;20063;-70
2022/05/11 01:58:00;;;;;;;10.00;3.28;;;;;;;14.33;77.70;101192.66;10541112;28;20039;-70
2022/05/11 02:03:00;;;;;;;3.88;2.25;;;;;;;14.33;77.84;101189.91;10521413;28;20032;-70
2022/05/11 02:08:00;;;;;;;5.57;2.72;;;;;;;14.32;76.69;101178.16;10540498;28;20109;-74
2022/05/11 02:13:01;;;;;;;2.10;1.90;;;;;;;14.29;77.04;101178.59;10540603;28;20043;-75
2022/05/11 02:18:01;;;;;;;8.52;3.38;;;;;;;14.27;76.69;101169.81;10541000;28;20071;-75
2022/05/11 02:23:02;;;;;;;6.82;2.33;;;;;;;14.33;75.78;101168.13;10542057;28;20036;-75
2022/05/11 02:28:02;;;;;;;5.78;2.83;;;;;;;14.33;75.41;101160.78;10549298;28;20028;-74
2022/05/11 02:33:03;;;;;;;4.18;2.22;;;;;;;14.27;76.04;101158.09;10531418;28;20072;-74
2022/05/11 02:38:06;;;;;;;21.33;3.15;;;;;;;14.25;76.03;101155.56;10530039;28;20479;-74
2022/05/11 02:43:07;;;;;;;17.38;2.80;;;;;;;14.16;75.13;101156.84;10549335;28;20063;-74
2022/05/11 02:48:09;;;;;;;14.18;2.60;;;;;;;14.10;75.28;101150.41;10548025;28;20058;-74
2022/05/11 02:53:11;;;;;;;6.40;1.80;;;;;;;14.11;75.19;101146.63;10547103;28;20093;-74
2022/05/11 02:58:15;;;;;;;7.20;2.40;;;;;;;14.15;75.15;101150.56;10530902;28;20503;-74
2022/05/11 03:03:16;;;;;;;4.72;1.45;;;;;;;14.16;74.84;101141.34;10535101;28;20028;-74
2022/05/11 03:08:16;;;;;;;7.30;2.80;;;;;;;14.13;75.07;101146.38;10552897;28;20431;-75
2022/05/11 03:13:16;;;;;;;4.35;2.10;;;;;;;14.16;74.85;101135.06;10517785;28;20426;-74
2022/05/11 03:18:17;;;;;;;4.03;2.10;;;;;;;14.14;74.94;101140.75;10535625;28;20032;-75
2022/05/11 03:23:17;;;;;;;10.85;2.50;;;;;;;14.16;74.31;101124.16;10534895;28;20468;-75
2022/05/11 03:28:18;;;;;;;5.10;1.80;;;;;;;14.16;74.25;101125.00;10532214;28;20127;-74
2022/05/11 03:38:37;;;;;;;3.08;1.67;;;;;;;14.13;74.69;101133.59;10546720;28;20056;-75
2022/05/11 03:43:37;;;;;;;5.53;2.50;;;;;;;14.15;74.42;101127.94;10545594;28;20060;-75
2022/05/11 03:48:38;;;;;;;3.25;1.83;;;;;;;14.08;74.51;101110.81;10527683;28;20048;-74
2022/05/11 03:53:38;;;;;;;5.75;1.92;;;;;;;14.08;74.26;101108.91;10546863;28;20043;-75
2022/05/11 03:58:39;;;;;;;5.80;2.10;;;;;;;14.09;73.93;101110.59;10545768;28;20445;-74
2022/05/11 04:03:39;;;;;;;1.52;1.23;;;;;;;14.07;74.62;101106.41;10545822;28;20035;-75
2022/05/11 04:08:42;;;;;;;2.28;1.85;;;;;;;14.02;74.41;101096.16;10527225;28;20395;-74
2022/05/11 04:13:42;;;;;;;8.90;1.75;;;;;;;14.06;73.93;101102.84;10544932;28;20518;-75
2022/05/11 04:18:43;;;;;;;2.85;1.95;;;;;;;13.98;73.72;101105.81;10511081;28;20055;-75
2022/05/11 04:23:43;;;;;;;4.28;2.30;;;;;;;13.88;75.48;101116.31;10526622;28;20043;-75
2022/05/11 04:28:43;;;;;;;4.40;2.53;;;;;;;13.94;74.54;101110.00;10544386;28;20035;-74
2022/05/11 04:33:44;;;;;;;6.47;1.63;;;;;;;13.89;74.72;101097.06;10526193;28;20036;-74
2022/05/11 04:38:44;;;;;;;1.67;1.58;;;;;;;13.93;74.61;101097.44;10542238;28;20046;-74
2022/05/11 04:43:44;;;;;;;4.67;1.43;;;;;;;14.04;74.16;101101.38;10542610;28;20032;-73
2022/05/11 04:48:45;;;;;;;6.72;1.88;;;;;;;14.08;74.44;101102.66;10544413;28;20375;-74
2022/05/11 04:53:46;;;;;;;5.55;2.65;;;;;;;14.15;73.71;101095.28;10525777;28;20471;-74
2022/05/11 04:58:46;;;;;;;10.25;2.60;;;;;;;14.19;73.95;101107.41;10543263;28;20468;-73
2022/05/11 05:03:46;;;;;;;6.05;2.10;;;;;;;14.36;73.42;101096.88;10543210;28;20348;-73
2022/05/11 05:08:47;;;;;;;6.72;2.85;;;;;;;14.73;72.02;101099.81;10507122;28;20028;-72
2022/05/11 05:13:47;;;;;;;1.92;1.75;;;;;;;14.35;72.49;101106.06;10542314;28;20035;-74
2022/05/11 05:18:48;;;;;;;3.30;1.77;;;;;;;14.15;73.89;101104.28;10541511;28;20055;-75
2022/05/11 05:23:49;;;;;;;3.55;2.60;;;;;;;15.57;70.10;101123.88;10542422;28;20107;-75
2022/05/11 05:34:08;;;;;;;8.95;2.20;;;;;;;17.29;63.54;101106.22;10526590;28;20475;-75
2022/05/11 05:39:08;;;;;;;5.28;1.90;;;;;;;17.24;62.64;101106.13;10543035;28;20044;-74
2022/05/11 05:44:09;;;;;;;2.78;1.83;;;;;;;17.14;63.06;101109.44;10524628;28;20047;-74
2022/05/11 05:49:09;;;;;;;9.07;2.28;;;;;;;16.60;65.53;101110.47;10544648;28;20055;-74
2022/05/11 05:54:10;;;;;;;5.78;2.40;;;;;;;15.99;66.62;101102.22;10543479;28;20047;-74
2022/05/11 05:59:11;;;;;;;7.30;2.00;;;;;;;15.77;67.79;101104.56;10543113;28;20040;-75
2022/05/11 06:04:12;;;;;;;6.70;2.55;;;;;;;15.66;68.63;101101.72;10543550;28;20032;-75
2022/05/11 06:09:12;;;;;;;5.38;2.55;;;;;;;15.62;68.44;101111.44;10541869;28;20482;-75
2022/05/11 06:14:12;;;;;;;8.23;2.55;;;;;;;15.85;68.13;101117.09;10540837;28;20024;-75
2022/05/11 06:19:13;;;;;;;3.05;1.42;;;;;;;16.30;67.05;101102.25;10522728;28;20028;-74
2022/05/11 06:24:13;;;;;;;4.13;1.90;;;;;;;16.72;66.24;101100.41;10523300;28;20379;-74
2022/05/11 06:29:14;;;;;;;13.75;2.90;;;;;;;16.86;64.54;101114.75;10540175;28;20032;-75
2022/05/11 06:34:15;;;;;;;5.38;2.25;;;;;;;16.81;63.43;101103.66;10540372;28;20440;-75
2022/05/11 06:39:16;;;;;;;6.85;1.77;;;;;;;17.50;63.37;101106.72;10522356;28;20062;-75
2022/05/11 06:44:17;;;;;;;7.40;1.40;;;;;;;18.07;60.16;101109.66;10540458;28;20079;-75
2022/05/11 06:49:19;;;;;;;2.50;1.40;;;;;;;18.22;59.01;101099.00;10542261;28;20071;-75
2022/05/11 06:59:38;;;;;;;4.35;1.27;;;;;;;18.45;57.68;101092.59;10539975;28;20039;-75
2022/05/11 07:04:39;;;;;;;7.05;1.80;;;;;;;18.02;58.59;101091.19;10540180;28;20032;-75
2022/05/11 07:09:39;;;;;;;5.25;2.55;;;;;;;18.61;58.25;101084.66;10542616;28;20448;-75
2022/05/11 07:14:40;;;;;;;7.55;1.75;;;;;;;18.56;58.43;101088.13;10548600;28;20509;-75
2022/05/11 07:19:43;;;;;;;12.23;2.67;;;;;;;19.86;56.78;101091.63;10549600;28;20059;-75
2022/05/11 07:24:43;;;;;;;8.02;2.40;;;;;;;20.79;53.21;101088.03;10547006;28;20082;-75
2022/05/11 07:29:44;;;;;;;7.63;2.35;;;;;;;21.53;51.91;101078.97;10528530;28;20438;-75
2022/05/11 07:34:44;;;;;;;8.10;2.83;;;;;;;22.40;50.89;101077.47;10549509;28;20091;-76
2022/05/11 07:39:45;;;;;;;2.87;2.70;;;;;;;22.08;48.97;101087.78;10554236;28;20043;-75
2022/05/11 07:44:45;;;;;;;9.02;3.08;;;;;;;21.96;49.21;101096.31;10518610;28;20284;-75
2022/05/11 07:49:46;;;;;;;11.35;3.00;;;;;;;22.41;49.67;101094.84;10551010;28;20040;-76
2022/05/11 07:54:46;;;;;;;8.35;3.95;;;;;;;22.15;49.91;101089.22;10528058;28;20086;-76
2022/05/11 07:59:55;;;;;;;6.88;3.60;;;;;;;22.43;49.17;101085.19;10527454;28;20387;-76
2022/05/11 08:05:01;;;;;;;7.47;3.38;;;;;;;22.51;50.21;101094.88;10545837;28;20039;-76
2022/05/11 08:10:01;;;;;;;5.80;2.80;;;;;;;22.77;50.64;101090.22;10545519;28;20387;-76
2022/05/11 08:15:02;;;;;;;5.97;2.78;;;;;;;22.63;49.20;101086.34;10544635;28;20028;-76
2022/05/11 08:20:06;;;;;;;9.52;3.83;;;;;;;22.44;49.81;101097.88;10543211;28;20028;-76
2022/05/11 08:25:07;;;;;;;7.15;4.00;;;;;;;22.25;52.05;101105.00;10543112;28;20395;-76
2022/05/11 08:35:29;;;;;;;8.10;4.18;;;;;;;21.71;54.15;101091.50;10528805;28;20063;-76
2022/05/11 08:40:35;;;;;;;13.65;3.72;;;;;;;22.32;52.77;101100.06;10543710;28;20110;-76
2022/05/11 08:45:56;;;;;;;24.55;4.47;;;;;;;23.28;51.77;101087.47;10544311;28;20043;-76
2022/05/11 08:50:57;;;;;;;18.10;4.80;;;;;;;23.91;48.27;101092.63;10505899;28;20044;-76
2022/05/11 08:55:57;;;;;;;9.43;3.58;;;;;;;23.66;49.28;101090.72;10534250;28;20032;-76
2022/05/11 09:00:58;;;;;;;12.82;4.45;;;;;;;22.57;51.62;101098.47;10498703;28;20115;-77
2022/05/11 09:05:59;;;;;;;16.50;3.58;;;;;;;22.70;52.71;101100.69;10510554;28;20459;-76
2022/05/11 09:10:59;;;;;;;14.18;4.40;;;;;;;22.03;54.56;101114.25;10527143;28;20075;-76
2022/05/11 09:16:00;;;;;;;11.80;4.25;;;;;;;23.56;50.25;101108.16;10542677;28;20540;-76
2022/05/11 09:21:03;;;;;;;6.90;4.07;;;;;;;24.36;48.20;101099.88;10524232;28;20032;-76
2022/05/11 09:26:07;;;;;;;7.53;3.92;;;;;;;24.62;47.04;101101.69;10541141;28;20035;-76
2022/05/11 09:31:12;;;;;;;6.53;2.70;;;;;;;24.43;46.77;101104.31;10542133;28;20043;-76
2022/05/11 09:36:12;;;;;;;11.13;3.65;;;;;;;24.27;46.86;101089.69;10507456;28;20061;-76
2022/05/11 09:41:21;;;;;;;5.38;3.70;;;;;;;24.53;45.65;101101.47;10541338;28;20120;-76
2022/05/11 09:46:23;;;;;;;14.15;3.97;;;;;;;24.42;45.03;101095.19;10507413;28;20498;-76
2022/05/11 09:51:46;;;;;;;8.45;2.50;;;;;;;24.46;45.12;101087.94;10540792;28;20055;-76
2022/05/11 09:56:49;;;;;;;6.43;3.17;;;;;;;24.75;45.24;101087.19;10538586;28;20038;-77
2022/05/11 10:02:17;;;;;;;6.20;2.80;;;;;;;25.40;42.32;101096.13;10540551;28;20028;-76
2022/05/11 10:07:19;;;;;;;20.88;4.15;;;;;;;25.32;41.72;101093.13;10533253;28;20047;-76
2022/05/11 10:12:23;;;;;;;3.38;2.97;;;;;;;25.36;40.15;101095.03;10505931;28;20035;-77
2022/05/11 10:23:07;;;;;;;6.88;3.38;;;;;;;25.40;40.23;101092.47;10540181;28;20387;-76
2022/05/11 10:28:49;;;;;;;3.25;2.92;;;;;;;25.69;38.86;101100.81;10539279;28;20039;-76
2022/05/11 10:33:59;;;;;;;4.70;3.40;;;;;;;25.52;38.02;101090.97;10434680;28;20127;-77
2022/05/11 10:39:27;;;;;;;5.53;2.70;;;;;;;25.04;38.37;101087.25;10435212;28;20477;-76
2022/05/11 10:45:06;;;;;;;4.82;2.63;;;;;;;25.15;39.13;101090.81;10535338;28;20177;-76
2022/05/11 10:50:21;;;;;;;11.48;4.00;;;;;;;25.27;37.87;101080.13;10531945;28;20040;-76
2022/05/11 10:55:35;;;;;;;5.22;2.45;;;;;;;25.75;36.84;101086.59;10530363;28;20031;-76
2022/05/11 11:00:46;;;;;;;2.20;2.10;;;;;;;25.64;36.04;101096.13;10529525;28;20118;-76
2022/05/11 11:12:33;;;;;;;6.00;2.15;;;;;;;25.34;37.07;101093.69;10546765;28;20031;-76
2022/05/11 11:17:34;;;;;;;6.63;2.55;;;;;;;25.73;35.11;101083.25;10529775;28;20123;-76
2022/05/11 11:23:12;;;;;;;3.70;2.45;;;;;;;25.46;36.64;101072.75;10528180;28;20028;-76
2022/05/11 11:28:15;;;;;;;5.90;2.30;;;;;;;25.39;35.10;101077.81;10547085;28;20028;-76
2022/05/11 11:33:16;;;;;;;9.50;2.55;;;;;;;25.88;36.40;101050.97;10528382;28;20431;-76
2022/05/11 11:38:26;;;;;;;8.88;2.17;;;;;;;26.21;34.58;101046.34;10527636;28;20118;-76
2022/05/11 11:43:51;;;;;;;3.80;2.58;;;;;;;26.37;34.40;101036.66;10548819;28;20028;-76
2022/05/11 11:49:15;;;;;;;5.50;2.97;;;;;;;26.21;36.08;101035.25;10552463;28;20112;-76
2022/05/11 11:54:31;;;;;;;9.07;3.03;;;;;;;26.31;37.63;101031.50;10532593;28;20032;-76
2022/05/11 11:59:33;;;;;;;;;;;;;;;26.33;38.80;101043.13;10510757;28;20032;-76
2022/05/11 12:04:35;;;;;;;14.20;4.43;;;;;;;26.34;38.79;101037.25;10552803;28;19907;-76
2022/05/11 12:15:11;;;;;;;9.80;4.68;;;;;;;26.73;39.04;101026.97;10541685;28;20458;-77
2022/05/11 12:20:14;;;;;;;4.72;3.65;;;;;;;26.46;38.08;101039.59;10546896;28;20170;-77
2022/05/11 12:25:28;;;;;;;16.55;4.47;;;;;;;26.26;39.15;101034.31;10509214;28;20048;-76
2022/05/11 12:30:39;;;;;;;8.00;4.53;;;;;;;25.75;39.43;101033.88;10511835;28;20050;-76
2022/05/11 12:35:41;;;;;;;8.07;4.30;;;;;;;25.97;39.92;101040.81;10542059;28;20356;-76
2022/05/11 12:40:47;;;;;;;9.02;5.22;;;;;;;26.13;38.65;101038.66;10510466;28;20036;-76
2022/05/11 12:45:47;;;;;;;8.80;2.60;;;;;;;26.22;38.06;101031.34;10509392;28;20055;-76
2022/05/11 12:51:04;;;;;;;6.95;3.28;;;;;;;25.24;40.89;101031.69;10525751;28;20032;-76
2022/05/11 12:56:07;;;;;;;;;;;;;;;24.78;40.36;101009.91;10510400;28;20042;-76
2022/05/11 13:01:11;;;;;;;9.50;4.03;;;;;;;24.99;39.96;101020.81;10542420;28;19957;-76
2022/05/11 13:06:25;;;;;;;6.93;3.30;;;;;;;24.74;40.97;101013.56;10523721;28;20032;-76
2022/05/11 13:11:26;;;;;;;5.55;2.85;;;;;;;24.48;41.86;101029.53;10508303;28;20042;-76
2022/05/11 13:16:32;;;;;;;3.13;2.88;;;;;;;24.55;41.67;101007.88;10507365;28;20127;-77
2022/05/11 13:21:37;;;;;;;11.67;4.47;;;;;;;23.86;42.82;101009.66;10523806;28;20036;-76
2022/05/11 13:26:45;;;;;;;7.32;2.85;;;;;;;23.66;43.21;101008.59;10508379;28;20396;-76
2022/05/11 13:31:46;;;;;;;8.73;3.80;;;;;;;23.46;44.05;100997.63;10506889;28;20050;-76
2022/05/11 13:36:52;;;;;;;13.57;3.72;;;;;;;22.95;44.75;100987.53;10524102;28;20028;-76
2022/05/11 13:41:55;;;;;;;6.82;4.15;;;;;;;22.75;45.71;100990.28;10506595;28;20032;-76
2022/05/11 13:52:37;;;;;;;16.73;3.05;;;;;;;22.55;46.96;100998.53;10527536;28;20063;-76
2022/05/11 13:57:38;;;;;;;12.68;3.58;;;;;;;22.60;47.15;100996.63;10541477;28;20464;-76
2022/05/11 14:02:39;;;;;;;7.15;2.95;;;;;;;22.19;47.50;100993.00;10522595;28;20047;-76
2022/05/11 14:07:39;;;;;;;6.93;2.40;;;;;;;22.60;47.64;100995.81;10505829;28;20490;-76
2022/05/11 14:12:40;;;;;;;9.88;3.03;;;;;;;22.90;46.43;100983.91;10540451;28;20105;-76
2022/05/11 14:17:43;;;;;;;3.45;2.83;;;;;;;22.49;47.22;100976.47;10505208;28;20028;-76
2022/05/11 14:22:43;;;;;;;13.35;3.70;;;;;;;21.73;48.99;100976.28;10505949;28;20085;-76
2022/05/11 14:27:44;;;;;;;8.98;3.55;;;;;;;21.22;50.12;100976.00;10540286;28;20433;-76
2022/05/11 14:32:45;;;;;;;6.85;2.55;;;;;;;21.01;50.79;100978.63;10540186;28;20142;-76
2022/05/11 14:37:46;;;;;;;6.15;3.35;;;;;;;20.56;51.89;100984.63;10525985;28;20539;-76
2022/05/11 14:42:46;;;;;;;9.43;4.10;;;;;;;20.55;52.46;100980.19;10527671;28;20039;-76
2022/05/11 14:47:55;;;;;;;6.47;2.63;;;;;;;20.43;52.43;100972.94;10524119;28;20071;-76
2022/05/11 14:52:56;;;;;;;9.45;2.20;;;;;;;20.27;53.44;100965.63;10523038;28;20047;-76
2022/05/11 15:03:17;;;;;;;13.27;2.53;;;;;;;20.53;53.17;100963.16;10530683;28;20399;-75
2022/05/11 15:08:18;;;;;;;7.75;3.60;;;;;;;20.14;53.13;100966.88;10538860;28;20467;-76
2022/05/11 15:13:30;;;;;;;12.10;3.65;;;;;;;20.36;53.98;100947.56;10521725;28;20056;-76
2022/05/11 15:18:30;;;;;;;2.17;2.08;;;;;;;19.82;54.66;100949.50;10540092;28;20032;-76
2022/05/11 15:23:31;;;;;;;9.02;3.40;;;;;;;19.61;55.72;100956.63;10539193;28;20447;-75
2022/05/11 15:28:32;;;;;;;4.95;2.95;;;;;;;19.43;56.05;100946.78;10539700;28;20040;-76
2022/05/11 15:33:32;;;;;;;4.50;2.83;;;;;;;19.47;56.40;100947.97;10545134;28;20020;-76
2022/05/11 15:38:32;;;;;;;6.03;3.17;;;;;;;19.29;56.77;100941.69;10511707;28;20439;-75
2022/05/11 15:43:34;;;;;;;5.10;3.15;;;;;;;19.01;57.56;100933.59;10528245;28;20123;-76
2022/05/11 15:48:37;;;;;;;8.70;2.92;;;;;;;18.94;57.46;100931.03;10544378;28;20495;-75
2022/05/11 15:53:37;;;;;;;4.15;2.90;;;;;;;18.71;58.11;100920.25;10545006;28;20031;-75
2022/05/11 15:58:39;;;;;;;6.00;3.13;;;;;;;18.73;57.84;100918.97;10545559;28;20032;-76
2022/05/11 16:03:43;;;;;;;6.63;2.90;;;;;;;18.57;57.51;100912.38;10512376;28;20103;-75
2022/05/11 16:08:44;;;;;;;4.63;2.53;;;;;;;18.71;56.67;100918.34;10544954;28;20432;-75
2022/05/11 16:13:44;;;;;;;3.95;2.90;;;;;;;18.72;56.71;100909.03;10545184;28;20036;-75
2022/05/11 16:24:04;;;;;;;21.38;3.70;;;;;;;18.72;54.37;100909.03;10544614;28;20036;-75
2022/05/11 16:29:05;;;;;;;11.13;2.17;;;;;;;18.94;53.23;100913.75;10545881;28;20043;-75
2022/05/11 16:34:05;;;;;;;8.95;2.08;;;;;;;18.97;51.72;100903.09;10549894;28;20036;-76
2022/05/11 16:39:06;;;;;;;9.00;3.42;;;;;;;19.03;51.78;100912.25;10534252;28;20071;-76
2022/05/11 16:44:06;;;;;;;7.53;3.00;;;;;;;18.85;52.93;100904.28;10532408;28;20040;-76
2022/05/11 16:49:07;;;;;;;3.90;2.45;;;;;;;18.76;54.31;100901.13;10513298;28;20067;-76
2022/05/11 16:54:07;;;;;;;16.35;3.92;;;;;;;18.71;55.37;100890.91;10544694;28;20039;-76
2022/05/11 16:59:07;;;;;;;27.60;3.17;;;;;;;18.58;56.75;100904.97;10508927;28;20494;-75
2022/05/11 17:04:08;;;;;;;21.48;2.70;;;;;;;18.46;57.86;100909.72;10525234;28;20081;-76
2022/05/11 17:09:09;;;;;;;4.88;3.35;;;;;;;18.36;57.96;100899.41;10543056;28;20059;-75
2022/05/11 17:14:09;;;;;;;2.28;1.75;;;;;;;18.39;58.03;100889.84;10525360;28;20043;-75
2022/05/11 17:19:10;;;;;;;3.13;1.73;;;;;;;18.39;58.30;100887.94;10542307;28;20517;-76
2022/05/11 17:24:10;;;;;;;4.22;2.17;;;;;;;18.24;58.79;100880.28;10544214;28;20048;-75
2022/05/11 17:29:11;;;;;;;2.92;2.03;;;;;;;18.15;58.95;100890.00;10547166;28;20048;-76
2022/05/11 17:34:11;;;;;;;6.97;2.17;;;;;;;18.07;59.49;100885.78;10548827;28;20386;-75
2022/05/11 17:39:11;;;;;;;2.70;2.00;;;;;;;17.97;59.73;100887.50;10527758;28;20141;-75
2022/05/11 17:44:14;;;;;;;17.88;3.42;;;;;;;17.92;60.06;100892.88;10524700;28;20024;-75
2022/05/11 17:49:14;;;;;;;7.50;2.47;;;;;;;17.93;60.67;100880.84;10524372;28;20479;-75
2022/05/11 17:54:14;;;;;;;6.95;2.75;;;;;;;17.88;60.52;100879.69;10523966;28;20064;-75
2022/05/11 17:59:15;;;;;;;9.40;1.80;;;;;;;17.93;61.50;100870.72;10506766;28;20109;-75
2022/05/11 18:04:15;;;;;;;6.80;1.80;;;;;;;17.91;62.16;100880.28;10523596;28;20028;-75
2022/05/11 18:09:16;;;;;;;4.53;1.75;;;;;;;17.75;63.95;100869.00;10522399;28;20131;-75
2022/05/11 18:14:16;;;;;;;2.90;2.45;;;;;;;17.69;65.14;100880.13;10540427;28;20068;-75
2022/05/11 18:19:16;;;;;;;5.70;1.42;;;;;;;17.27;71.18;100881.22;10522691;28;20058;-75
2022/05/11 18:24:17;;;;;;;2.03;1.52;;;;;;;16.76;75.04;100876.56;10523810;28;20024;-75
2022/05/11 18:29:17;;;;;;;11.18;2.90;;;;;;;16.30;80.61;100892.66;10505474;28;20032;-75
2022/05/11 18:34:18;;;;;;;6.15;2.47;;;;;;;16.11;81.61;100880.16;10505957;28;20383;-75
2022/05/11 18:39:18;;;;;;;22.15;3.75;;;;;;;16.00;82.35;100885.38;10540913;28;20399;-75
2022/05/11 18:44:19;;;;;;;8.77;2.78;;;;;;;16.01;81.22;100889.75;10506121;28;20040;-75
2022/05/11 18:49:19;;;;;;;7.25;2.45;;;;;;;15.90;81.48;100874.19;10522951;28;20445;-75
2022/05/11 18:54:19;;;;;;;8.55;2.75;;;;;;;15.72;86.58;100888.72;10539819;28;20028;-75
2022/05/11 18:59:20;;;;;;;7.18;2.97;;;;;;;15.52;88.66;100919.00;10522230;28;20036;-74
2022/05/11 19:04:20;;;;;;;6.38;2.47;;;;;;;14.80;98.31;100931.56;10539995;28;20029;-73
2022/05/11 19:09:21;;;;;;;4.63;3.05;;;;;;;14.48;100.00;100934.31;10529563;28;20089;-73
2022/05/11 19:14:22;;;;;;;6.97;2.95;;;;;;;14.30;100.00;100940.56;10528810;28;20036;-74
2022/05/11 19:19:23;;;;;;;16.95;3.90;;;;;;;14.18;100.00;100950.50;10530911;28;20032;-75
2022/05/11 19:24:23;;;;;;;4.22;3.78;;;;;;;14.17;100.00;100973.34;10529197;28;20475;-75
2022/05/11 19:29:24;;;;;;;12.93;4.72;;;;;;;14.21;100.00;100971.84;10528623;28;20031;-75
2022/05/11 19:34:24;;;;;;;6.18;4.07;;;;;;;13.99;100.00;100976.78;10544962;28;20078;-75
2022/05/11 19:39:24;;;;;;;3.72;3.38;;;;;;;13.96;100.00;100977.22;10528454;28;20036;-75
2022/05/11 19:44:45;;;;;;;18.65;5.32;;;;;;;13.93;100.00;100983.09;10528284;28;20488;-76
2022/05/11 19:49:56;;;;;;;20.85;5.32;;;;;;;13.89;100.00;100985.44;10511290;28;20059;-76
2022/05/11 19:55:12;;;;;;;16.25;5.57;;;;;;;13.94;100.00;100990.22;10363679;28;20062;-78
2022/05/11 20:00:16;;;;;;;6.50;4.40;;;;;;;13.95;100.00;101008.25;10494085;28;20036;-77
2022/05/11 20:05:32;;;;;;;8.27;4.85;;;;;;;13.93;100.00;101018.50;10527415;28;20032;-77
2022/05/11 20:10:38;;;;;;;26.35;6.38;;;;;;;13.84;100.00;101017.91;10510715;28;20044;-77
2022/05/11 20:15:48;;;;;;;10.77;5.45;;;;;;;13.80;100.00;101004.97;10526116;28;20032;-76
2022/05/11 20:21:12;;;;;;;11.02;5.25;;;;;;;13.82;100.00;101009.13;10544163;28;20028;-76
2022/05/11 20:37:57;;;;;;;10.70;4.80;;;;;;;13.58;100.00;101067.00;10420663;28;20032;-77
2022/05/11 20:43:01;;;;;;;15.93;4.70;;;;;;;13.48;100.00;101090.03;10515880;28;20028;-77
2022/05/11 20:48:28;;;;;;;17.58;5.03;;;;;;;13.47;100.00;101074.75;10526864;28;20040;-77
2022/05/11 20:53:29;;;;;;;16.08;5.05;;;;;;;13.43;100.00;101081.69;10510452;28;20032;-77
2022/05/11 20:58:30;;;;;;;10.57;3.28;;;;;;;13.37;100.00;101085.25;10536938;28;20521;-77
2022/05/11 21:03:30;;;;;;;16.27;3.70;;;;;;;13.28;100.00;101097.41;10539652;28;20036;-76
2022/05/11 21:08:33;;;;;;;5.13;3.45;;;;;;;13.22;100.00;101107.19;10540067;28;20036;-77
2022/05/11 21:13:34;;;;;;;25.67;5.18;;;;;;;13.14;100.00;101117.44;10522135;28;20032;-76
2022/05/11 21:18:38;;;;;;;14.68;4.93;;;;;;;13.05;100.00;101138.56;10533890;28;20024;-77
2022/05/11 21:23:39;;;;;;;9.32;2.83;;;;;;;13.06;100.00;101147.56;10498878;28;20093;-77
2022/05/11 21:28:39;;;;;;;7.28;4.43;;;;;;;12.90;100.00;101165.94;10532488;28;20078;-76
2022/05/11 21:33:40;;;;;;;9.88;2.97;;;;;;;12.79;100.00;101186.41;10530470;28;20040;-76
2022/05/11 21:38:51;;;;;;;13.15;3.90;;;;;;;12.76;100.00;101189.53;10547550;28;20043;-76
2022/05/11 21:43:54;;;;;;;15.70;4.95;;;;;;;12.67;100.00;101198.91;10523917;28;20044;-76
2022/05/11 21:48:56;;;;;;;18.80;3.92;;;;;;;12.59;100.00;101209.94;10506218;28;20056;-76
2022/05/11 21:54:07;;;;;;;14.77;4.65;;;;;;;12.59;100.00;101207.22;10523198;28;20097;-76
2022/05/11 21:59:33;;;;;;;6.65;3.15;;;;;;;12.41;100.00;101210.53;10505966;28;20114;-76
2022/05/11 22:04:36;;;;;;;12.23;3.42;;;;;;;12.23;100.00;101221.06;10540010;28;20491;-76
2022/05/11 22:09:40;;;;;;;10.27;3.35;;;;;;;12.00;100.00;101240.38;10539071;28;20486;-76
2022/05/11 22:14:44;;;;;;;13.77;3.67;;;;;;;11.83;100.00;101243.31;10506636;28;20032;-76
2022/05/11 22:19:53;;;;;;;6.78;4.88;;;;;;;11.75;100.00;101254.34;10506209;28;20042;-76
2022/05/11 22:24:54;;;;;;;9.10;2.50;;;;;;;11.63;100.00;101269.47;10508287;28;20031;-76
2022/05/11 22:30:03;;;;;;;4.97;2.33;;;;;;;11.52;100.00;101272.69;10504587;28;20032;-76
2022/05/11 22:35:19;;;;;;;6.72;2.58;;;;;;;11.45;100.00;101278.06;10490286;28;20031;-76
2022/05/11 22:40:32;;;;;;;6.40;2.65;;;;;;;11.36;100.00;101280.06;10507596;28;20040;-76
2022/05/11 22:45:33;;;;;;;15.30;3.10;;;;;;;11.34;100.00;101289.44;10514534;28;20043;-76
2022/05/11 22:50:41;;;;;;;13.55;2.55;;;;;;;11.27;100.00;101294.78;10529603;28;20051;-76
2022/05/11 22:55:46;;;;;;;8.13;2.78;;;;;;;11.21;100.00;101302.84;10514419;28;20042;-77
2022/05/11 23:00:59;;;;;;;7.30;3.40;;;;;;;11.14;100.00;101305.50;10496693;28;20465;-77
2022/05/11 23:06:11;;;;;;;11.52;3.05;;;;;;;11.09;100.00;101322.31;10516843;28;20474;-76
2022/05/11 23:11:18;;;;;;;3.65;2.50;;;;;;;11.03;100.00;101333.91;10512008;28;20097;-76
2022/05/11 23:16:20;;;;;;;3.95;1.92;;;;;;;11.01;100.00;101335.97;10516289;28;20040;-76
2022/05/11 23:21:27;;;;;;;9.38;1.33;;;;;;;11.01;100.00;101344.13;10551542;28;20032;-76
2022/05/11 23:26:28;;;;;;;;;;;;;;;10.97;100.00;101350.09;10533601;28;20380;-76
2022/05/11 23:31:36;;;;;;;7.90;2.50;;;;;;;10.91;100.00;101348.97;10531082;28;19912;-76
2022/05/11 23:36:39;;;;;;;2.45;1.88;;;;;;;10.89;100.00;101367.31;10532888;28;20051;-76
2022/05/11 23:41:41;;;;;;;5.80;2.25;;;;;;;10.83;100.00;101355.34;10512952;28;20035;-76
2022/05/11 23:46:47;;;;;;;7.85;2.63;;;;;;;10.76;100.00;101375.25;10511906;28;20384;-76
2022/05/11 23:51:50;;;;;;;8.82;2.70;;;;;;;10.73;100.00;101378.34;10529033;28;20422;-76
2022/05/11 23:56:52;;;;;;;5.97;3.20;;;;;;;10.68;100.00;101381.59;10527516;28;20031;-76
